createdAt,value
2016-09-05T00:00:33.565Z,1003.71
2016-09-05T00:01:33.544Z,1003.75
2016-09-05T00:02:33.522Z,1003.7
2016-09-05T00:03:33.499Z,1003.68
2016-09-05T00:04:33.477Z,1003.67
2016-09-05T00:05:33.455Z,1003.68
2016-09-05T00:06:33.434Z,1003.7
2016-09-05T00:07:33.412Z,1003.66
2016-09-05T00:08:33.390Z,1003.73
2016-09-05T00:09:33.368Z,1003.71
2016-09-05T00:10:33.346Z,1003.64
2016-09-05T00:11:33.324Z,1003.67
2016-09-05T00:12:33.302Z,1003.65
2016-09-05T00:13:33.281Z,1003.6
2016-09-05T00:14:33.258Z,1003.68
2016-09-05T00:15:33.237Z,1003.62
2016-09-05T00:16:33.215Z,1003.7
2016-09-05T00:17:33.193Z,1003.7
2016-09-05T00:18:33.172Z,1003.7
2016-09-05T00:19:33.150Z,1003.73
2016-09-05T00:20:33.128Z,1003.75
2016-09-05T00:21:33.105Z,1003.74
2016-09-05T00:22:33.084Z,1003.76
2016-09-05T00:23:33.063Z,1003.77
2016-09-05T00:24:33.041Z,1003.77
2016-09-05T00:25:33.019Z,1003.81
2016-09-05T00:26:32.998Z,1003.8
2016-09-05T00:27:32.975Z,1003.79
2016-09-05T00:28:32.954Z,1003.77
2016-09-05T00:29:32.932Z,1003.75
2016-09-05T00:30:32.911Z,1003.72
2016-09-05T00:31:32.889Z,1003.76
2016-09-05T00:32:32.865Z,1003.74
2016-09-05T00:33:32.844Z,1003.74
2016-09-05T00:34:32.823Z,1003.74
2016-09-05T00:35:32.802Z,1003.8
2016-09-05T00:36:32.778Z,1003.78
2016-09-05T00:37:32.757Z,1003.81
2016-09-05T00:38:32.736Z,1003.82
2016-09-05T00:39:32.714Z,1003.81
2016-09-05T00:40:32.692Z,1003.83
2016-09-05T00:41:32.670Z,1003.87
2016-09-05T00:42:32.648Z,1003.84
2016-09-05T00:43:32.625Z,1003.86
2016-09-05T00:44:32.604Z,1003.8
2016-09-05T00:45:32.582Z,1003.8
2016-09-05T00:46:32.560Z,1003.8
2016-09-05T00:47:32.537Z,1003.79
2016-09-05T00:48:32.516Z,1003.85
2016-09-05T00:49:32.494Z,1003.88
2016-09-05T00:50:32.471Z,1003.84
2016-09-05T00:51:32.450Z,1003.91
2016-09-05T00:52:32.427Z,1003.9
2016-09-05T00:53:32.406Z,1003.9
2016-09-05T00:54:32.383Z,1003.86
2016-09-05T00:55:32.361Z,1003.83
2016-09-05T00:56:32.340Z,1003.82
2016-09-05T00:57:32.318Z,1003.78
2016-09-05T00:58:32.296Z,1003.7
2016-09-05T00:59:32.273Z,1003.67
2016-09-05T01:00:32.251Z,1003.77
2016-09-05T01:01:32.243Z,1003.77
2016-09-05T01:02:32.207Z,1003.77
2016-09-05T01:03:32.185Z,1003.8
2016-09-05T01:04:32.163Z,1003.77
2016-09-05T01:05:32.140Z,1003.74
2016-09-05T01:06:32.119Z,1003.77
2016-09-05T01:07:32.097Z,1003.79
2016-09-05T01:08:32.076Z,1003.8
2016-09-05T01:09:32.052Z,1003.87
2016-09-05T01:10:32.031Z,1003.82
2016-09-05T01:11:32.009Z,1003.79
2016-09-05T01:12:31.987Z,1003.83
2016-09-05T01:13:31.965Z,1003.82
2016-09-05T01:14:31.945Z,1003.79
2016-09-05T01:15:31.921Z,1003.77
2016-09-05T01:16:31.899Z,1003.82
2016-09-05T01:17:31.877Z,1003.83
2016-09-05T01:18:31.855Z,1003.78
2016-09-05T01:19:31.836Z,1003.79
2016-09-05T01:20:31.810Z,1003.77
2016-09-05T01:21:31.789Z,1003.78
2016-09-05T01:22:31.768Z,1003.79
2016-09-05T01:23:31.745Z,1003.81
2016-09-05T01:24:31.723Z,1003.81
2016-09-05T01:25:31.701Z,1003.85
2016-09-05T01:26:31.680Z,1003.79
2016-09-05T01:27:31.658Z,1003.77
2016-09-05T01:28:31.637Z,1003.79
2016-09-05T01:29:31.614Z,1003.81
2016-09-05T01:30:31.593Z,1003.82
2016-09-05T01:31:31.570Z,1003.78
2016-09-05T01:32:31.549Z,1003.78
2016-09-05T01:33:31.527Z,1003.8
2016-09-05T01:34:31.504Z,1003.84
2016-09-05T01:35:31.482Z,1003.87
2016-09-05T01:36:31.461Z,1003.94
2016-09-05T01:37:31.439Z,1003.88
2016-09-05T01:38:31.417Z,1003.86
2016-09-05T01:39:31.396Z,1003.84
2016-09-05T01:40:31.375Z,1003.91
2016-09-05T01:41:31.353Z,1003.86
2016-09-05T01:42:31.329Z,1003.87
2016-09-05T01:43:31.308Z,1003.86
2016-09-05T01:44:31.287Z,1003.91
2016-09-05T01:45:31.265Z,1003.83
2016-09-05T01:46:31.243Z,1003.9
2016-09-05T01:47:31.221Z,1003.9
2016-09-05T01:48:31.199Z,1003.92
2016-09-05T01:49:31.183Z,1003.88
2016-09-05T01:50:31.156Z,1003.87
2016-09-05T01:51:31.135Z,1003.87
2016-09-05T01:52:31.113Z,1003.86
2016-09-05T01:53:31.090Z,1003.95
2016-09-05T01:54:31.069Z,1003.94
2016-09-05T01:55:31.048Z,1003.97
2016-09-05T01:56:31.025Z,1003.96
2016-09-05T01:57:31.003Z,1003.94
2016-09-05T01:58:30.981Z,1003.9
2016-09-05T01:59:30.961Z,1003.98
2016-09-05T02:00:30.938Z,1003.93
2016-09-05T02:01:30.924Z,1003.9
2016-09-05T02:02:30.895Z,1003.96
2016-09-05T02:03:30.873Z,1003.99
2016-09-05T02:04:30.851Z,1004.04
2016-09-05T02:05:30.830Z,1004.02
2016-09-05T02:06:30.807Z,1003.97
2016-09-05T02:07:30.786Z,1003.98
2016-09-05T02:08:30.764Z,1003.98
2016-09-05T02:09:30.743Z,1004
2016-09-05T02:10:30.721Z,1003.96
2016-09-05T02:11:30.699Z,1003.98
2016-09-05T02:12:30.678Z,1004.07
2016-09-05T02:13:30.656Z,1004.01
2016-09-05T02:14:30.635Z,1004.09
2016-09-05T02:15:30.613Z,1004.13
2016-09-05T02:16:30.591Z,1004.13
2016-09-05T02:17:30.571Z,1004.23
2016-09-05T02:18:30.548Z,1004.22
2016-09-05T02:19:30.527Z,1004.13
2016-09-05T02:20:30.504Z,1004.23
2016-09-05T02:21:30.483Z,1004.28
2016-09-05T02:22:30.461Z,1004.22
2016-09-05T02:23:30.440Z,1004.24
2016-09-05T02:24:30.418Z,1004.26
2016-09-05T02:25:30.395Z,1004.26
2016-09-05T02:26:30.374Z,1004.24
2016-09-05T02:27:30.353Z,1004.23
2016-09-05T02:28:30.332Z,1004.31
2016-09-05T02:29:30.309Z,1004.27
2016-09-05T02:30:30.288Z,1004.27
2016-09-05T02:31:30.266Z,1004.23
2016-09-05T02:32:30.245Z,1004.18
2016-09-05T02:33:30.222Z,1004.21
2016-09-05T02:34:30.200Z,1004.22
2016-09-05T02:35:30.179Z,1004.26
2016-09-05T02:36:30.157Z,1004.27
2016-09-05T02:37:30.136Z,1004.27
2016-09-05T02:38:30.114Z,1004.26
2016-09-05T02:39:30.092Z,1004.28
2016-09-05T02:40:30.070Z,1004.25
2016-09-05T02:41:30.049Z,1004.18
2016-09-05T02:42:30.028Z,1004.22
2016-09-05T02:43:30.006Z,1004.24
2016-09-05T02:44:29.983Z,1004.3
2016-09-05T02:45:29.963Z,1004.39
2016-09-05T02:46:29.941Z,1004.29
2016-09-05T02:47:29.919Z,1004.38
2016-09-05T02:48:29.897Z,1004.31
2016-09-05T02:49:29.875Z,1004.29
2016-09-05T02:50:29.853Z,1004.38
2016-09-05T02:51:29.831Z,1004.33
2016-09-05T02:52:29.810Z,1004.33
2016-09-05T02:53:29.788Z,1004.31
2016-09-05T02:54:29.767Z,1004.41
2016-09-05T02:55:29.745Z,1004.35
2016-09-05T02:56:29.724Z,1004.42
2016-09-05T02:57:29.702Z,1004.51
2016-09-05T02:58:29.680Z,1004.43
2016-09-05T02:59:29.658Z,1004.48
2016-09-05T03:00:29.637Z,1004.43
2016-09-05T03:01:29.616Z,1004.44
2016-09-05T03:02:29.594Z,1004.52
2016-09-05T03:03:29.572Z,1004.43
2016-09-05T03:04:29.550Z,1004.38
2016-09-05T03:05:29.530Z,1004.49
2016-09-05T03:06:29.508Z,1004.51
2016-09-05T03:07:29.485Z,1004.52
2016-09-05T03:08:29.465Z,1004.59
2016-09-05T03:09:29.442Z,1004.51
2016-09-05T03:10:29.421Z,1004.57
2016-09-05T03:11:29.400Z,1004.46
2016-09-05T03:12:29.378Z,1004.51
2016-09-05T03:13:29.356Z,1004.53
2016-09-05T03:14:29.337Z,1004.48
2016-09-05T03:15:29.317Z,1004.53
2016-09-05T03:16:29.292Z,1004.52
2016-09-05T03:17:29.270Z,1004.5
2016-09-05T03:18:29.248Z,1004.55
2016-09-05T03:19:29.227Z,1004.48
2016-09-05T03:20:29.205Z,1004.51
2016-09-05T03:21:29.184Z,1004.5
2016-09-05T03:22:29.162Z,1004.54
2016-09-05T03:23:29.146Z,1004.49
2016-09-05T03:24:29.119Z,1004.55
2016-09-05T03:25:29.097Z,1004.56
2016-09-05T03:26:29.076Z,1004.54
2016-09-05T03:27:29.055Z,1004.55
2016-09-05T03:28:29.033Z,1004.55
2016-09-05T03:29:29.016Z,1004.61
2016-09-05T03:30:28.990Z,1004.66
2016-09-05T03:31:28.968Z,1004.6
2016-09-05T03:32:28.947Z,1004.61
2016-09-05T03:33:28.926Z,1004.54
2016-09-05T03:34:28.904Z,1004.49
2016-09-05T03:35:28.882Z,1004.54
2016-09-05T03:36:28.861Z,1004.56
2016-09-05T03:37:28.840Z,1004.53
2016-09-05T03:38:28.822Z,1004.53
2016-09-05T03:39:28.795Z,1004.56
2016-09-05T03:40:28.775Z,1004.57
2016-09-05T03:41:28.754Z,1004.62
2016-09-05T03:42:28.731Z,1004.67
2016-09-05T03:43:28.710Z,1004.68
2016-09-05T03:44:28.689Z,1004.72
2016-09-05T03:45:28.668Z,1004.69
2016-09-05T03:46:28.645Z,1004.67
2016-09-05T03:47:28.624Z,1004.73
2016-09-05T03:48:28.603Z,1004.76
2016-09-05T03:49:28.582Z,1004.68
2016-09-05T03:50:28.560Z,1004.77
2016-09-05T03:51:28.540Z,1004.74
2016-09-05T03:52:28.518Z,1004.78
2016-09-05T03:53:28.496Z,1004.74
2016-09-05T03:54:28.475Z,1004.84
2016-09-05T03:55:28.454Z,1004.8
2016-09-05T03:56:28.432Z,1004.89
2016-09-05T03:57:28.410Z,1004.86
2016-09-05T03:58:28.389Z,1004.86
2016-09-05T03:59:28.368Z,1004.86
2016-09-05T04:00:28.346Z,1004.95
2016-09-05T04:01:28.324Z,1004.97
2016-09-05T04:02:28.303Z,1004.93
2016-09-05T04:03:28.282Z,1004.94
2016-09-05T04:04:28.259Z,1004.91
2016-09-05T04:05:28.238Z,1004.99
2016-09-05T04:06:28.217Z,1004.9
2016-09-05T04:07:28.195Z,1004.95
2016-09-05T04:08:28.174Z,1004.95
2016-09-05T04:09:28.153Z,1005.01
2016-09-05T04:10:28.132Z,1004.96
2016-09-05T04:11:28.110Z,1004.95
2016-09-05T04:12:28.088Z,1004.96
2016-09-05T04:13:28.067Z,1005.02
2016-09-05T04:14:28.046Z,1005.03
2016-09-05T04:15:28.023Z,1004.97
2016-09-05T04:16:28.002Z,1004.95
2016-09-05T04:17:27.982Z,1004.96
2016-09-05T04:18:27.961Z,1005.01
2016-09-05T04:19:27.943Z,1004.9
2016-09-05T04:20:27.917Z,1004.95
2016-09-05T04:21:27.896Z,1005.02
2016-09-05T04:22:27.879Z,1005.03
2016-09-05T04:23:27.852Z,1005.01
2016-09-05T04:24:27.832Z,1005.02
2016-09-05T04:25:27.810Z,1005.01
2016-09-05T04:26:27.790Z,1005
2016-09-05T04:27:27.768Z,1004.98
2016-09-05T04:28:27.747Z,1004.98
2016-09-05T04:29:27.725Z,1004.95
2016-09-05T04:30:27.703Z,1005.06
2016-09-05T04:31:27.682Z,1005.03
2016-09-05T04:32:27.661Z,1005.08
2016-09-05T04:33:27.639Z,1005.07
2016-09-05T04:34:27.617Z,1005.05
2016-09-05T04:35:27.597Z,1005.06
2016-09-05T04:36:27.575Z,1005.08
2016-09-05T04:37:27.553Z,1005.11
2016-09-05T04:38:27.533Z,1005.1
2016-09-05T04:39:27.512Z,1005.1
2016-09-05T04:40:27.490Z,1005.19
2016-09-05T04:41:27.469Z,1005.16
2016-09-05T04:42:27.447Z,1005.24
2016-09-05T04:43:27.426Z,1005.22
2016-09-05T04:44:27.404Z,1005.22
2016-09-05T04:45:27.383Z,1005.25
2016-09-05T04:46:27.362Z,1005.21
2016-09-05T04:47:27.341Z,1005.2
2016-09-05T04:48:27.318Z,1005.19
2016-09-05T04:49:27.297Z,1005.22
2016-09-05T04:50:27.277Z,1005.26
2016-09-05T04:51:27.255Z,1005.23
2016-09-05T04:52:27.233Z,1005.29
2016-09-05T04:53:27.212Z,1005.3
2016-09-05T04:54:27.191Z,1005.37
2016-09-05T04:55:27.169Z,1005.41
2016-09-05T04:56:27.148Z,1005.39
2016-09-05T04:57:27.127Z,1005.4
2016-09-05T04:58:27.106Z,1005.4
2016-09-05T04:59:27.083Z,1005.42
2016-09-05T05:00:27.062Z,1005.41
2016-09-05T05:01:27.042Z,1005.46
2016-09-05T05:02:27.020Z,1005.45
2016-09-05T05:03:26.999Z,1005.43
2016-09-05T05:04:26.977Z,1005.42
2016-09-05T05:05:26.956Z,1005.45
2016-09-05T05:06:26.935Z,1005.55
2016-09-05T05:07:26.914Z,1005.48
2016-09-05T05:08:26.893Z,1005.51
2016-09-05T05:09:26.872Z,1005.57
2016-09-05T05:10:26.850Z,1005.6
2016-09-05T05:11:26.828Z,1005.6
2016-09-05T05:12:26.808Z,1005.63
2016-09-05T05:13:26.786Z,1005.6
2016-09-05T05:14:26.765Z,1005.66
2016-09-05T05:15:26.743Z,1005.7
2016-09-05T05:16:26.722Z,1005.7
2016-09-05T05:17:26.701Z,1005.76
2016-09-05T05:18:26.679Z,1005.68
2016-09-05T05:19:26.659Z,1005.7
2016-09-05T05:20:26.638Z,1005.71
2016-09-05T05:21:26.615Z,1005.74
2016-09-05T05:22:26.595Z,1005.78
2016-09-05T05:23:26.573Z,1005.7
2016-09-05T05:24:26.553Z,1005.75
2016-09-05T05:25:26.531Z,1005.78
2016-09-05T05:26:26.511Z,1005.76
2016-09-05T05:27:26.489Z,1005.82
2016-09-05T05:28:26.468Z,1005.85
2016-09-05T05:29:26.446Z,1005.85
2016-09-05T05:30:26.425Z,1005.82
2016-09-05T05:31:26.404Z,1005.89
2016-09-05T05:32:26.383Z,1005.94
2016-09-05T05:33:26.361Z,1005.96
2016-09-05T05:34:26.340Z,1006.04
2016-09-05T05:35:26.318Z,1006.03
2016-09-05T05:36:26.296Z,1006
2016-09-05T05:37:26.276Z,1005.96
2016-09-05T05:38:26.254Z,1005.97
2016-09-05T05:39:26.232Z,1005.99
2016-09-05T05:40:26.210Z,1006.01
2016-09-05T05:41:26.189Z,1006.03
2016-09-05T05:42:26.168Z,1006
2016-09-05T05:43:26.146Z,1006.06
2016-09-05T05:44:26.126Z,1006.07
2016-09-05T05:45:26.104Z,1006.07
2016-09-05T05:46:26.082Z,1006.11
2016-09-05T05:47:26.060Z,1006.14
2016-09-05T05:48:26.039Z,1006.14
2016-09-05T05:49:26.017Z,1006.11
2016-09-05T05:50:25.995Z,1006.16
2016-09-05T05:51:25.974Z,1006.17
2016-09-05T05:52:25.952Z,1006.18
2016-09-05T05:53:25.930Z,1006.2
2016-09-05T05:54:25.909Z,1006.13
2016-09-05T05:55:25.887Z,1006.19
2016-09-05T05:56:25.866Z,1006.14
2016-09-05T05:57:25.844Z,1006.15
2016-09-05T05:58:25.822Z,1006.16
2016-09-05T05:59:25.800Z,1006.16
2016-09-05T06:00:25.780Z,1006.21
2016-09-05T06:01:25.757Z,1006.2
2016-09-05T06:02:25.736Z,1006.16
2016-09-05T06:03:25.714Z,1006.21
2016-09-05T06:04:25.692Z,1006.27
2016-09-05T06:05:25.672Z,1006.21
2016-09-05T06:06:25.652Z,1006.23
2016-09-05T06:07:25.628Z,1006.21
2016-09-05T06:08:25.607Z,1006.21
2016-09-05T06:09:25.586Z,1006.26
2016-09-05T06:10:25.564Z,1006.23
2016-09-05T06:11:25.543Z,1006.19
2016-09-05T06:12:25.520Z,1006.32
2016-09-05T06:13:25.499Z,1006.26
2016-09-05T06:14:25.478Z,1006.3
2016-09-05T06:15:25.456Z,1006.33
2016-09-05T06:16:25.435Z,1006.31
2016-09-05T06:17:25.413Z,1006.31
2016-09-05T06:18:25.392Z,1006.32
2016-09-05T06:19:25.370Z,1006.3
2016-09-05T06:20:25.350Z,1006.29
2016-09-05T06:21:25.328Z,1006.3
2016-09-05T06:22:25.307Z,1006.34
2016-09-05T06:23:25.285Z,1006.34
2016-09-05T06:24:25.264Z,1006.44
2016-09-05T06:25:25.244Z,1006.45
2016-09-05T06:26:25.222Z,1006.41
2016-09-05T06:27:25.201Z,1006.42
2016-09-05T06:28:25.181Z,1006.43
2016-09-05T06:29:25.158Z,1006.44
2016-09-05T06:30:25.138Z,1006.47
2016-09-05T06:31:25.123Z,1006.5
2016-09-05T06:32:25.097Z,1006.53
2016-09-05T06:33:25.078Z,1006.54
2016-09-05T06:34:25.055Z,1006.57
2016-09-05T06:35:25.033Z,1006.61
2016-09-05T06:36:25.014Z,1006.61
2016-09-05T06:37:24.991Z,1006.62
2016-09-05T06:38:24.970Z,1006.64
2016-09-05T06:39:24.962Z,1006.64
2016-09-05T06:40:24.929Z,1006.65
2016-09-05T06:41:24.908Z,1006.66
2016-09-05T06:42:24.888Z,1006.68
2016-09-05T06:43:24.867Z,1006.75
2016-09-05T06:44:24.847Z,1006.73
2016-09-05T06:45:24.825Z,1006.77
2016-09-05T06:46:24.806Z,1006.73
2016-09-05T06:47:24.785Z,1006.78
2016-09-05T06:48:24.764Z,1006.78
2016-09-05T06:49:24.743Z,1006.8
2016-09-05T06:50:24.724Z,1006.79
2016-09-05T06:51:24.770Z,1006.8
2016-09-05T06:52:24.689Z,1006.82
2016-09-05T06:53:24.663Z,1006.89
2016-09-05T06:54:24.643Z,1006.89
2016-09-05T06:55:24.623Z,1006.9
2016-09-05T06:56:24.607Z,1006.91
2016-09-05T06:57:24.582Z,1006.9
2016-09-05T06:58:24.562Z,1006.9
2016-09-05T06:59:24.542Z,1006.93
2016-09-05T07:00:24.523Z,1006.96
2016-09-05T07:01:24.502Z,1006.96
2016-09-05T07:02:24.482Z,1006.95
2016-09-05T07:03:24.461Z,1006.95
2016-09-05T07:04:24.443Z,1007
2016-09-05T07:05:24.423Z,1007.01
2016-09-05T07:06:24.403Z,1007.02
2016-09-05T07:07:24.382Z,1007.05
2016-09-05T07:08:24.361Z,1006.97
2016-09-05T07:09:24.346Z,1007.07
2016-09-05T07:10:24.487Z,1007.09
2016-09-05T07:11:24.500Z,1007.11
2016-09-05T07:12:24.282Z,1007.1
2016-09-05T07:13:24.263Z,1007.14
2016-09-05T07:14:24.241Z,1007.12
2016-09-05T07:15:24.222Z,1007.12
2016-09-05T07:16:24.202Z,1007.12
2016-09-05T07:17:24.182Z,1007.12
2016-09-05T07:18:24.162Z,1007.08
2016-09-05T07:19:24.143Z,1007.19
2016-09-05T07:20:24.122Z,1007.14
2016-09-05T07:21:24.103Z,1007.16
2016-09-05T07:22:24.084Z,1007.22
2016-09-05T07:23:24.065Z,1007.22
2016-09-05T07:24:24.046Z,1007.21
2016-09-05T07:25:24.025Z,1007.24
2016-09-05T07:26:24.006Z,1007.23
2016-09-05T07:27:23.988Z,1007.25
2016-09-05T07:28:23.969Z,1007.3
2016-09-05T07:29:23.949Z,1007.27
2016-09-05T07:30:23.933Z,1007.33
2016-09-05T07:31:23.910Z,1007.27
2016-09-05T07:32:23.891Z,1007.21
2016-09-05T07:33:23.873Z,1007.27
2016-09-05T07:34:23.855Z,1007.31
2016-09-05T07:35:23.835Z,1007.28
2016-09-05T07:36:23.817Z,1007.32
2016-09-05T07:37:23.798Z,1007.25
2016-09-05T07:38:23.779Z,1007.29
2016-09-05T07:39:23.762Z,1007.27
2016-09-05T07:40:23.743Z,1007.29
2016-09-05T07:41:23.723Z,1007.3
2016-09-05T07:42:23.707Z,1007.31
2016-09-05T07:43:23.687Z,1007.31
2016-09-05T07:44:23.670Z,1007.34
2016-09-05T07:45:23.652Z,1007.37
2016-09-05T07:46:23.634Z,1007.38
2016-09-05T07:47:23.615Z,1007.37
2016-09-05T07:48:23.597Z,1007.4
2016-09-05T07:49:23.579Z,1007.39
2016-09-05T07:50:23.561Z,1007.4
2016-09-05T07:51:23.543Z,1007.39
2016-09-05T07:52:23.525Z,1007.39
2016-09-05T07:53:23.507Z,1007.42
2016-09-05T07:54:23.549Z,1007.46
2016-09-05T07:55:23.469Z,1007.48
2016-09-05T07:56:23.458Z,1007.44
2016-09-05T07:57:23.433Z,1007.49
2016-09-05T07:58:23.414Z,1007.54
2016-09-05T07:59:23.396Z,1007.47
2016-09-05T08:00:23.463Z,1007.5
2016-09-05T08:01:23.359Z,1007.56
2016-09-05T08:02:23.339Z,1007.53
2016-09-05T08:03:23.321Z,1007.52
2016-09-05T08:04:23.303Z,1007.57
2016-09-05T08:05:23.282Z,1007.56
2016-09-05T08:06:23.263Z,1007.59
2016-09-05T08:07:23.245Z,1007.57
2016-09-05T08:08:23.225Z,1007.62
2016-09-05T08:09:23.206Z,1007.6
2016-09-05T08:10:23.186Z,1007.58
2016-09-05T08:11:23.168Z,1007.6
2016-09-05T08:12:23.149Z,1007.56
2016-09-05T08:13:23.131Z,1007.57
2016-09-05T08:14:23.113Z,1007.53
2016-09-05T08:15:23.093Z,1007.59
2016-09-05T08:16:23.075Z,1007.59
2016-09-05T08:17:23.056Z,1007.52
2016-09-05T08:18:23.038Z,1007.52
2016-09-05T08:19:23.019Z,1007.53
2016-09-05T08:20:23.000Z,1007.49
2016-09-05T08:21:22.982Z,1007.58
2016-09-05T08:22:22.968Z,1007.61
2016-09-05T08:23:22.946Z,1007.6
2016-09-05T08:24:22.927Z,1007.6
2016-09-05T08:25:22.911Z,1007.59
2016-09-05T08:26:22.891Z,1007.62
2016-09-05T08:27:22.874Z,1007.67
2016-09-05T08:28:22.856Z,1007.62
2016-09-05T08:29:22.839Z,1007.68
2016-09-05T08:30:22.820Z,1007.65
2016-09-05T08:31:22.802Z,1007.66
2016-09-05T08:32:22.785Z,1007.66
2016-09-05T08:33:22.767Z,1007.71
2016-09-05T08:34:22.750Z,1007.68
2016-09-05T08:35:22.732Z,1007.68
2016-09-05T08:36:22.715Z,1007.67
2016-09-05T08:37:22.699Z,1007.71
2016-09-05T08:38:22.679Z,1007.61
2016-09-05T08:39:22.662Z,1007.71
2016-09-05T08:40:22.646Z,1007.73
2016-09-05T08:41:22.629Z,1007.71
2016-09-05T08:42:22.610Z,1007.75
2016-09-05T08:43:22.592Z,1007.78
2016-09-05T08:44:22.576Z,1007.75
2016-09-05T08:45:22.557Z,1007.76
2016-09-05T08:46:22.594Z,1007.78
2016-09-05T08:47:22.523Z,1007.76
2016-09-05T08:48:22.506Z,1007.72
2016-09-05T08:49:22.488Z,1007.78
2016-09-05T08:50:22.471Z,1007.75
2016-09-05T08:51:22.454Z,1007.75
2016-09-05T08:52:22.437Z,1007.75
2016-09-05T08:53:22.420Z,1007.78
2016-09-05T08:54:22.403Z,1007.76
2016-09-05T08:55:22.386Z,1007.79
2016-09-05T08:56:22.368Z,1007.8
2016-09-05T08:57:22.352Z,1007.89
2016-09-05T08:58:22.335Z,1007.82
2016-09-05T08:59:22.319Z,1007.87
2016-09-05T09:00:22.300Z,1007.84
2016-09-05T09:01:22.285Z,1007.89
2016-09-05T09:02:22.267Z,1007.83
2016-09-05T09:03:22.250Z,1007.84
2016-09-05T09:04:22.234Z,1007.87
2016-09-05T09:05:22.217Z,1007.93
2016-09-05T09:06:22.201Z,1007.97
2016-09-05T09:07:22.184Z,1008.06
2016-09-05T09:08:22.173Z,1008.02
2016-09-05T09:09:22.152Z,1008.02
2016-09-05T09:10:22.135Z,1008.1
2016-09-05T09:11:22.117Z,1008.05
2016-09-05T09:12:22.103Z,1008.1
2016-09-05T09:13:22.085Z,1008.19
2016-09-05T09:14:22.068Z,1008.16
2016-09-05T09:15:22.051Z,1008.21
2016-09-05T09:16:22.034Z,1008.18
2016-09-05T09:17:22.018Z,1008.11
2016-09-05T09:18:22.000Z,1008.17
2016-09-05T09:19:21.983Z,1008.17
2016-09-05T09:20:21.967Z,1008.18
2016-09-05T09:21:21.950Z,1008.18
2016-09-05T09:22:21.931Z,1008.22
2016-09-05T09:23:21.915Z,1008.21
2016-09-05T09:24:21.898Z,1008.27
2016-09-05T09:25:21.881Z,1008.22
2016-09-05T09:26:21.863Z,1008.22
2016-09-05T09:27:21.846Z,1008.19
2016-09-05T09:28:21.833Z,1008.17
2016-09-05T09:29:21.810Z,1008.14
2016-09-05T09:30:21.861Z,1008.18
2016-09-05T09:31:21.779Z,1008.27
2016-09-05T09:32:22.122Z,1008.25
2016-09-05T09:33:21.786Z,1008.26
2016-09-05T09:34:21.723Z,1008.34
2016-09-05T09:35:21.705Z,1008.29
2016-09-05T09:36:21.742Z,1008.34
2016-09-05T09:37:21.670Z,1008.33
2016-09-05T09:38:21.655Z,1008.31
2016-09-05T09:39:21.634Z,1008.38
2016-09-05T09:40:21.663Z,1008.36
2016-09-05T09:41:21.599Z,1008.33
2016-09-05T09:42:21.582Z,1008.46
2016-09-05T09:43:21.564Z,1008.43
2016-09-05T09:44:21.546Z,1008.4
2016-09-05T09:45:21.529Z,1008.45
2016-09-05T09:46:21.511Z,1008.36
2016-09-05T09:47:21.494Z,1008.31
2016-09-05T09:48:21.476Z,1008.3
2016-09-05T09:49:21.459Z,1008.32
2016-09-05T09:50:21.442Z,1008.36
2016-09-05T09:51:21.424Z,1008.42
2016-09-05T09:52:21.407Z,1008.41
2016-09-05T09:53:21.391Z,1008.4
2016-09-05T09:54:21.373Z,1008.41
2016-09-05T09:55:21.360Z,1008.42
2016-09-05T09:56:21.342Z,1008.55
2016-09-05T09:57:21.324Z,1008.47
2016-09-05T09:58:21.438Z,1008.52
2016-09-05T09:59:21.290Z,1008.53
2016-09-05T10:00:21.309Z,1008.54
2016-09-05T10:01:21.259Z,1008.61
2016-09-05T10:02:21.241Z,1008.68
2016-09-05T10:03:21.287Z,1008.72
2016-09-05T10:04:21.210Z,1008.68
2016-09-05T10:05:21.195Z,1008.65
2016-09-05T10:06:21.178Z,1008.7
2016-09-05T10:07:21.163Z,1008.66
2016-09-05T10:08:21.148Z,1008.72
2016-09-05T10:09:21.132Z,1008.66
2016-09-05T10:10:21.117Z,1008.66
2016-09-05T10:11:21.102Z,1008.64
2016-09-05T10:12:21.087Z,1008.67
2016-09-05T10:13:21.070Z,1008.68
2016-09-05T10:14:21.055Z,1008.63
2016-09-05T10:15:21.039Z,1008.6
2016-09-05T10:16:21.025Z,1008.63
2016-09-05T10:17:21.009Z,1008.67
2016-09-05T10:18:20.993Z,1008.62
2016-09-05T10:19:20.979Z,1008.64
2016-09-05T10:20:20.962Z,1008.6
2016-09-05T10:21:20.947Z,1008.78
2016-09-05T10:22:20.931Z,1008.71
2016-09-05T10:23:20.916Z,1008.69
2016-09-05T10:24:20.899Z,1008.77
2016-09-05T10:25:20.883Z,1008.76
2016-09-05T10:26:20.867Z,1008.79
2016-09-05T10:27:20.852Z,1008.79
2016-09-05T10:28:20.835Z,1008.75
2016-09-05T10:29:20.819Z,1008.74
2016-09-05T10:30:20.805Z,1008.8
2016-09-05T10:31:20.788Z,1008.76
2016-09-05T10:32:20.773Z,1008.78
2016-09-05T10:33:20.759Z,1008.83
2016-09-05T10:34:20.744Z,1008.75
2016-09-05T10:35:20.729Z,1008.79
2016-09-05T10:36:20.714Z,1008.79
2016-09-05T10:37:20.699Z,1008.79
2016-09-05T10:38:20.685Z,1008.8
2016-09-05T10:39:20.670Z,1008.74
2016-09-05T10:40:20.655Z,1008.77
2016-09-05T10:41:20.641Z,1008.76
2016-09-05T10:42:20.625Z,1008.74
2016-09-05T10:43:20.612Z,1008.75
2016-09-05T10:44:20.597Z,1008.8
2016-09-05T10:45:20.582Z,1008.76
2016-09-05T10:46:20.603Z,1008.75
2016-09-05T10:47:20.552Z,1008.86
2016-09-05T10:48:20.538Z,1008.8
2016-09-05T10:49:20.524Z,1008.75
2016-09-05T10:50:20.513Z,1008.81
2016-09-05T10:51:20.493Z,1008.79
2016-09-05T10:52:20.613Z,1008.81
2016-09-05T10:53:20.464Z,1008.78
2016-09-05T10:54:20.450Z,1008.81
2016-09-05T10:55:20.435Z,1008.81
2016-09-05T10:56:20.421Z,1008.79
2016-09-05T10:57:20.409Z,1008.75
2016-09-05T10:58:20.392Z,1008.74
2016-09-05T10:59:20.377Z,1008.72
2016-09-05T11:00:20.363Z,1008.82
2016-09-05T11:01:20.349Z,1008.8
2016-09-05T11:02:20.333Z,1008.77
2016-09-05T11:03:20.320Z,1008.85
2016-09-05T11:04:20.305Z,1008.8
2016-09-05T11:05:20.291Z,1008.82
2016-09-05T11:06:20.277Z,1008.86
2016-09-05T11:07:20.264Z,1008.94
2016-09-05T11:08:20.249Z,1008.87
2016-09-05T11:09:20.235Z,1008.89
2016-09-05T11:10:20.221Z,1008.88
2016-09-05T11:11:20.208Z,1008.88
2016-09-05T11:12:20.194Z,1008.92
2016-09-05T11:13:20.179Z,1008.89
2016-09-05T11:14:20.166Z,1008.96
2016-09-05T11:15:20.151Z,1008.91
2016-09-05T11:16:20.137Z,1008.95
2016-09-05T11:17:20.124Z,1008.94
2016-09-05T11:18:20.110Z,1008.92
2016-09-05T11:19:20.095Z,1008.94
2016-09-05T11:20:20.082Z,1008.91
2016-09-05T11:21:20.068Z,1008.94
2016-09-05T11:22:20.054Z,1008.94
2016-09-05T11:23:20.040Z,1008.91
2016-09-05T11:24:20.026Z,1008.9
2016-09-05T11:25:20.014Z,1008.92
2016-09-05T11:26:19.999Z,1008.97
2016-09-05T11:27:19.986Z,1008.91
2016-09-05T11:28:19.971Z,1008.93
2016-09-05T11:29:19.958Z,1008.93
2016-09-05T11:30:19.943Z,1008.86
2016-09-05T11:31:19.930Z,1008.89
2016-09-05T11:32:19.916Z,1008.91
2016-09-05T11:33:19.902Z,1008.93
2016-09-05T11:34:19.888Z,1008.92
2016-09-05T11:35:19.874Z,1008.93
2016-09-05T11:36:19.860Z,1008.96
2016-09-05T11:37:19.845Z,1008.96
2016-09-05T11:38:19.831Z,1008.99
2016-09-05T11:39:19.817Z,1008.96
2016-09-05T11:40:19.802Z,1009.15
2016-09-05T11:41:19.787Z,1009.05
2016-09-05T11:42:19.773Z,1008.97
2016-09-05T11:43:19.760Z,1009.01
2016-09-05T11:44:19.746Z,1008.93
2016-09-05T11:45:19.730Z,1008.98
2016-09-05T11:46:19.717Z,1008.97
2016-09-05T11:47:19.708Z,1009.05
2016-09-05T11:48:19.685Z,1008.97
2016-09-05T11:49:19.669Z,1009.05
2016-09-05T11:50:19.654Z,1009
2016-09-05T11:51:19.640Z,1009.06
2016-09-05T11:52:19.630Z,1009.05
2016-09-05T11:53:19.614Z,1009.07
2016-09-05T11:54:19.606Z,1009.08
2016-09-05T11:55:19.581Z,1009.06
2016-09-05T11:56:19.611Z,1009.1
2016-09-05T11:57:19.622Z,1009.08
2016-09-05T11:58:19.598Z,1009.14
2016-09-05T11:59:19.543Z,1009.08
2016-09-05T12:00:19.931Z,1009.09
2016-09-05T12:01:19.490Z,1009.1
2016-09-05T12:02:19.476Z,1009.13
2016-09-05T12:03:19.468Z,1009.18
2016-09-05T12:04:19.446Z,1009.18
2016-09-05T12:05:19.432Z,1009.17
2016-09-05T12:06:19.416Z,1009.21
2016-09-05T12:07:19.401Z,1009.21
2016-09-05T12:08:19.386Z,1009.17